Time;durP1;ratioP1;P1;durP2;ratioP2;P2;SDS_P1;SDS_P2;PMS_P1;PMS_P2;Temp;Humidity;BMP_temperature;BMP_pressure;BME280_temperature;BME280_humidity;BME280_pressure;Samples;Min_cycle;Max_cycle;Signal;HPM_P1;HPM_P2
2022/04/26 03:37:29;;;;;;;14.70;5.47;;;;;;;;;;5089215;28;20154;-76
2022/04/26 03:39:55;;;;;;;12.93;5.50;;;;;;;;;;5088128;28;20045;-77
2022/04/26 03:42:21;;;;;;;11.93;5.15;;;;;;;;;;5088536;28;20024;-76
2022/04/26 03:44:47;;;;;;;13.63;5.32;;;;;;;;;;5088329;28;20024;-77
2022/04/26 03:47:13;;;;;;;12.43;6.05;;;;;;;;;;5088168;28;20027;-77
2022/04/26 03:49:39;;;;;;;15.30;6.15;;;;;;;;;;5088188;28;20201;-76
2022/04/26 03:52:06;;;;;;;13.80;5.60;;;;;;;;;;5088212;28;20020;-76
2022/04/26 03:54:32;;;;;;;15.60;6.10;;;;;;;;;;5088117;28;21295;-77
2022/04/26 03:56:58;;;;;;;10.32;5.55;;;;;;;;;;5085497;28;20094;-77
2022/04/26 03:59:24;;;;;;;10.60;5.53;;;;;;;;;;5088153;28;20465;-77
2022/04/26 04:01:50;;;;;;;12.75;6.05;;;;;;;;;;5088072;28;20490;-77
2022/04/26 04:04:16;;;;;;;13.82;5.78;;;;;;;;;;5087987;28;20864;-77
2022/04/26 04:06:42;;;;;;;13.32;6.25;;;;;;;;;;5087801;28;20036;-77
2022/04/26 04:09:08;;;;;;;12.07;6.03;;;;;;;;;;5087502;28;20044;-77
2022/04/26 04:11:34;;;;;;;11.57;5.60;;;;;;;;;;5085681;28;20025;-77
2022/04/26 04:14:01;;;;;;;10.65;6.00;;;;;;;;;;5087700;28;20055;-77
2022/04/26 04:16:27;;;;;;;12.68;5.88;;;;;;;;;;5087641;28;20020;-77
2022/04/26 04:21:38;;;;;;;15.48;6.60;;;;;;;;;;5073910;28;20086;-76
2022/04/26 04:24:04;;;;;;;21.85;9.05;;;;;;;;;;5074141;28;20031;-77
2022/04/26 04:26:30;;;;;;;11.52;6.90;;;;;;;;;;5074111;28;20531;-77
2022/04/26 04:28:56;;;;;;;13.95;6.82;;;;;;;;;;5073909;28;20033;-76
2022/04/26 04:31:22;;;;;;;12.32;5.93;;;;;;;;;;5073824;28;20024;-77
2022/04/26 04:33:48;;;;;;;17.00;6.78;;;;;;;;;;5073785;28;20017;-77
2022/04/26 04:36:15;;;;;;;12.60;7.05;;;;;;;;;;5073935;28;20020;-77
2022/04/26 04:38:41;;;;;;;14.38;6.68;;;;;;;;;;5074157;28;20024;-76
2022/04/26 04:41:07;;;;;;;15.35;7.50;;;;;;;;;;5074196;28;20074;-77
2022/04/26 04:43:34;;;;;;;19.80;8.27;;;;;;;;;;5074840;28;20158;-76
2022/04/26 04:46:00;;;;;;;20.35;7.82;;;;;;;;;;5075025;28;20052;-77
2022/04/26 04:48:27;;;;;;;18.13;7.93;;;;;;;;;;5075312;28;20060;-77
2022/04/26 04:50:53;;;;;;;15.77;8.30;;;;;;;;;;5075092;28;20482;-76
2022/04/26 04:53:19;;;;;;;17.48;8.73;;;;;;;;;;5074497;28;20028;-76
2022/04/26 04:55:45;;;;;;;19.65;9.07;;;;;;;;;;5074015;28;20024;-76
2022/04/26 04:58:11;;;;;;;16.60;9.05;;;;;;;;;;5073616;28;20024;-76
2022/04/26 05:00:37;;;;;;;20.23;8.80;;;;;;;;;;5073322;28;20379;-76
2022/04/26 05:03:04;;;;;;;16.77;9.05;;;;;;;;;;5073567;28;20012;-77
2022/04/26 05:05:30;;;;;;;17.90;9.75;;;;;;;;;;5073227;28;20379;-77
2022/04/26 05:07:58;;;;;;;23.17;9.98;;;;;;;;;;5070389;28;20040;-76
2022/04/26 05:10:24;;;;;;;21.95;10.48;;;;;;;;;;5071984;28;20021;-76
2022/04/26 05:12:50;;;;;;;22.15;10.32;;;;;;;;;;5073230;28;20033;-77
2022/04/26 05:15:16;;;;;;;18.95;9.35;;;;;;;;;;5070371;28;20491;-76
2022/04/26 05:17:42;;;;;;;22.90;9.85;;;;;;;;;;5073506;28;20032;-76
2022/04/26 05:20:08;;;;;;;21.60;9.30;;;;;;;;;;5073287;28;20024;-77
2022/04/26 05:24:53;;;;;;;22.02;10.93;;;;;;;;;;5073580;28;20799;-76
2022/04/26 05:25:21;;;;;;;19.27;9.77;;;;;;;;;;5073348;28;20071;-76
2022/04/26 05:27:47;;;;;;;19.30;9.07;;;;;;;;;;5072817;28;20031;-76
2022/04/26 05:30:13;;;;;;;28.98;9.40;;;;;;;;;;5072688;28;20645;-76
2022/04/26 05:32:39;;;;;;;21.08;9.35;;;;;;;;;;5071809;28;20032;-77
2022/04/26 05:35:10;;;;;;;20.83;9.18;;;;;;;;;;5072614;28;20248;-76
2022/04/26 05:37:36;;;;;;;15.40;8.98;;;;;;;;;;5072613;28;20490;-76
2022/04/26 05:40:03;;;;;;;17.58;9.13;;;;;;;;;;5072523;28;20052;-76
2022/04/26 05:42:30;;;;;;;19.27;9.15;;;;;;;;;;5072637;28;20024;-76
2022/04/26 05:44:56;;;;;;;15.48;8.85;;;;;;;;;;5072434;28;20028;-76
2022/04/26 05:47:23;;;;;;;28.02;10.10;;;;;;;;;;5072483;28;20099;-77
2022/04/26 05:49:49;;;;;;;21.88;9.15;;;;;;;;;;5072449;28;20047;-77
2022/04/26 05:52:15;;;;;;;19.27;8.73;;;;;;;;;;5072465;28;20021;-76
2022/04/26 05:54:41;;;;;;;19.73;8.57;;;;;;;;;;5072410;28;20013;-76
2022/04/26 05:57:07;;;;;;;19.10;8.18;;;;;;;;;;5072824;28;20016;-77
2022/04/26 05:59:34;;;;;;;15.57;8.15;;;;;;;;;;5072770;28;20457;-77
2022/04/26 06:02:01;;;;;;;17.35;7.47;;;;;;;;;;5072530;28;20052;-76
2022/04/26 06:04:27;;;;;;;18.35;7.45;;;;;;;;;;5072604;28;20466;-77
2022/04/26 06:06:53;;;;;;;15.40;7.40;;;;;;;;;;5072472;28;20032;-76
2022/04/26 06:09:20;;;;;;;15.63;7.57;;;;;;;;;;5072255;28;20054;-77
2022/04/26 06:11:46;;;;;;;19.02;7.60;;;;;;;;;;5065819;28;20382;-77
2022/04/26 06:14:12;;;;;;;16.52;7.38;;;;;;;;;;5052426;28;20509;-77
2022/04/26 06:16:38;;;;;;;16.20;6.88;;;;;;;;;;5052424;28;20395;-77
2022/04/26 06:19:04;;;;;;;12.93;6.80;;;;;;;;;;5052372;28;20033;-76
2022/04/26 06:21:30;;;;;;;24.08;7.20;;;;;;;;;;5050863;28;20112;-76
2022/04/26 06:23:56;;;;;;;14.57;6.85;;;;;;;;;;5052344;28;20068;-77
2022/04/26 06:26:22;;;;;;;17.48;7.13;;;;;;;;;;5052192;28;20032;-77
2022/04/26 06:28:48;;;;;;;18.63;6.47;;;;;;;;;;5052152;28;20032;-77
2022/04/26 06:31:14;;;;;;;16.15;6.30;;;;;;;;;;5066247;28;20024;-76
2022/04/26 06:33:40;;;;;;;15.25;5.82;;;;;;;;;;5072102;28;20024;-76
2022/04/26 06:36:06;;;;;;;14.98;5.90;;;;;;;;;;5071996;28;20383;-76
2022/04/26 06:38:32;;;;;;;18.98;5.88;;;;;;;;;;5071996;28;20032;-76
2022/04/26 06:41:00;;;;;;;14.43;5.22;;;;;;;;;;5072109;28;20032;-77
2022/04/26 06:43:26;;;;;;;16.27;5.85;;;;;;;;;;5071790;28;20096;-77
2022/04/26 06:45:52;;;;;;;17.92;6.07;;;;;;;;;;5070409;28;20549;-77
2022/04/26 06:48:18;;;;;;;12.30;5.07;;;;;;;;;;5071944;28;20056;-76
2022/04/26 06:50:45;;;;;;;13.10;5.53;;;;;;;;;;5071890;28;20023;-77
2022/04/26 06:53:13;;;;;;;15.55;5.93;;;;;;;;;;5071863;28;20017;-76
2022/04/26 06:55:39;;;;;;;15.77;6.30;;;;;;;;;;5071955;28;20017;-76
2022/04/26 06:58:06;;;;;;;17.63;5.13;;;;;;;;;;5070490;28;20116;-77
2022/04/26 07:00:32;;;;;;;10.48;5.38;;;;;;;;;;5071726;28;20025;-76
2022/04/26 07:02:58;;;;;;;13.80;4.70;;;;;;;;;;5071904;28;20033;-77
2022/04/26 07:05:24;;;;;;;17.25;4.80;;;;;;;;;;5071766;28;20020;-77
2022/04/26 07:07:52;;;;;;;17.02;4.47;;;;;;;;;;5070128;28;20127;-77
2022/04/26 07:10:19;;;;;;;14.05;5.32;;;;;;;;;;5070325;28;20032;-77
2022/04/26 07:12:45;;;;;;;9.48;3.90;;;;;;;;;;5056998;28;20036;-76
2022/04/26 07:15:11;;;;;;;15.57;4.20;;;;;;;;;;5051508;28;20060;-77
2022/04/26 07:17:40;;;;;;;15.57;4.00;;;;;;;;;;5051711;28;20021;-77
2022/04/26 07:20:08;;;;;;;12.27;3.85;;;;;;;;;;5051548;28;20022;-76
2022/04/26 07:22:34;;;;;;;9.80;3.80;;;;;;;;;;5051543;28;20096;-77
2022/04/26 07:25:00;;;;;;;13.10;3.85;;;;;;;;;;5051559;28;20447;-76
2022/04/26 07:27:26;;;;;;;12.90;3.95;;;;;;;;;;5051519;28;20379;-77
2022/04/26 07:29:52;;;;;;;13.25;3.83;;;;;;;;;;5054207;28;20020;-77
2022/04/26 07:32:19;;;;;;;12.65;3.70;;;;;;;;;;5071554;28;20021;-76
2022/04/26 07:34:48;;;;;;;13.20;4.05;;;;;;;;;;5071451;28;20039;-76
2022/04/26 07:37:14;;;;;;;11.60;3.80;;;;;;;;;;5071464;28;20040;-76
2022/04/26 07:39:41;;;;;;;8.57;3.03;;;;;;;;;;5071412;28;20025;-77
2022/04/26 07:42:07;;;;;;;9.38;3.67;;;;;;;;;;5071577;28;20036;-77
2022/04/26 07:44:35;;;;;;;14.55;3.72;;;;;;;;;;5069957;28;20025;-77
2022/04/26 07:47:01;;;;;;;14.15;3.60;;;;;;;;;;5071293;28;20039;-77
2022/04/26 07:49:28;;;;;;;9.88;3.28;;;;;;;;;;5071155;28;20033;-77
2022/04/26 07:51:54;;;;;;;10.93;3.90;;;;;;;;;;5071270;28;20035;-77
2022/04/26 07:54:20;;;;;;;19.67;3.78;;;;;;;;;;5071311;28;20027;-77
2022/04/26 07:56:46;;;;;;;15.00;3.03;;;;;;;;;;5074330;28;20437;-76
2022/04/26 07:59:14;;;;;;;9.75;3.30;;;;;;;;;;5074032;28;20078;-77
2022/04/26 08:01:40;;;;;;;7.53;2.60;;;;;;;;;;5073938;28;20498;-77
2022/04/26 08:04:06;;;;;;;8.68;2.75;;;;;;;;;;5074077;28;20029;-77
2022/04/26 08:06:33;;;;;;;12.43;2.70;;;;;;;;;;5073778;28;20016;-77
2022/04/26 08:08:59;;;;;;;11.80;3.40;;;;;;;;;;5073787;28;20052;-77
2022/04/26 08:11:25;;;;;;;10.32;3.10;;;;;;;;;;5073838;28;20021;-77
2022/04/26 08:13:52;;;;;;;14.07;3.40;;;;;;;;;;5073892;28;20546;-76
2022/04/26 08:16:18;;;;;;;9.90;2.58;;;;;;;;;;5073989;28;20027;-77
2022/04/26 08:18:44;;;;;;;7.55;2.40;;;;;;;;;;5072722;28;20382;-77
2022/04/26 08:21:14;;;;;;;6.80;2.17;;;;;;;;;;5073781;28;20032;-77
2022/04/26 08:29:09;;;;;;;5.50;2.10;;;;;;;;;;5073002;28;20039;-77
2022/04/26 08:31:37;;;;;;;8.35;2.65;;;;;;;;;;5072396;28;20051;-77
2022/04/26 08:34:03;;;;;;;6.47;2.20;;;;;;;;;;5073948;28;20015;-77
2022/04/26 08:36:30;;;;;;;10.55;2.65;;;;;;;;;;5072508;28;20016;-76
2022/04/26 08:38:56;;;;;;;10.82;3.17;;;;;;;;;;5074078;28;20111;-76
2022/04/26 08:41:22;;;;;;;10.27;3.10;;;;;;;;;;5073887;28;20142;-76
2022/04/26 08:43:48;;;;;;;10.07;2.45;;;;;;;;;;5073872;28;20060;-76
2022/04/26 08:46:14;;;;;;;10.75;3.00;;;;;;;;;;5074320;28;20047;-79
2022/04/26 08:51:25;;;;;;;8.13;2.83;;;;;;;;;;5074878;28;20433;-76
2022/04/26 08:53:51;;;;;;;8.45;2.40;;;;;;;;;;5074777;28;20445;-78
2022/04/26 08:56:19;;;;;;;9.75;2.55;;;;;;;;;;5055608;28;20356;-79
2022/04/26 08:58:45;;;;;;;5.70;2.45;;;;;;;;;;5055281;28;20499;-79
2022/04/26 09:01:11;;;;;;;7.50;2.60;;;;;;;;;;5063218;28;20036;-78
2022/04/26 09:03:39;;;;;;;7.43;2.28;;;;;;;;;;5075261;28;20024;-79
2022/04/26 09:06:08;;;;;;;11.32;2.40;;;;;;;;;;5073544;28;20033;-79
2022/04/26 09:08:38;;;;;;;6.30;2.63;;;;;;;;;;5074665;28;20052;-78
2022/04/26 09:11:04;;;;;;;8.60;2.70;;;;;;;;;;5073788;28;20351;-78
2022/04/26 09:13:40;;;;;;;6.63;2.22;;;;;;;;;;5054292;28;20029;-79
2022/04/26 09:16:15;;;;;;;8.63;2.53;;;;;;;;;;5053935;28;20024;-78
2022/04/26 09:18:49;;;;;;;6.85;2.50;;;;;;;;;;5053626;28;20111;-78
2022/04/26 09:21:15;;;;;;;9.88;2.50;;;;;;;;;;5068877;28;20024;-78
2022/04/26 09:23:42;;;;;;;12.02;2.90;;;;;;;;;;5073336;28;20021;-78
2022/04/26 09:26:08;;;;;;;6.18;2.50;;;;;;;;;;5071792;28;20360;-78
2022/04/26 09:28:35;;;;;;;6.90;2.70;;;;;;;;;;5073401;28;20051;-78
2022/04/26 09:31:02;;;;;;;8.85;3.22;;;;;;;;;;5073219;28;20020;-77
2022/04/26 09:33:31;;;;;;;10.60;3.35;;;;;;;;;;5072606;28;20372;-75
2022/04/26 09:36:05;;;;;;;8.85;3.05;;;;;;;;;;5071703;28;20023;-78
2022/04/26 09:38:33;;;;;;;8.88;3.30;;;;;;;;;;5073128;28;20645;-77
2022/04/26 09:41:00;;;;;;;10.30;3.13;;;;;;;;;;5070766;28;20044;-78
2022/04/26 09:43:26;;;;;;;6.85;3.38;;;;;;;;;;5073645;28;20470;-78
2022/04/26 09:45:56;;;;;;;8.07;3.20;;;;;;;;;;5073245;28;20028;-78
2022/04/26 09:48:29;;;;;;;9.05;3.05;;;;;;;;;;5053297;28;20129;-78
2022/04/26 09:50:57;;;;;;;8.63;3.70;;;;;;;;;;5071458;28;20451;-77
2022/04/26 09:53:23;;;;;;;6.38;2.85;;;;;;;;;;5072708;28;20017;-77
2022/04/26 09:55:49;;;;;;;7.57;3.08;;;;;;;;;;5072729;28;20100;-75
2022/04/26 09:58:19;;;;;;;5.90;2.90;;;;;;;;;;5072110;28;20555;-74
2022/04/26 10:00:47;;;;;;;8.30;2.97;;;;;;;;;;5069590;28;20055;-75
2022/04/26 10:03:16;;;;;;;6.00;3.08;;;;;;;;;;5072193;28;20092;-74
2022/04/26 10:05:42;;;;;;;6.65;2.95;;;;;;;;;;5072333;28;20032;-74
2022/04/26 10:08:09;;;;;;;8.65;3.50;;;;;;;;;;5070704;28;20110;-76
2022/04/26 10:10:35;;;;;;;8.10;2.60;;;;;;;;;;5072573;28;20024;-73
2022/04/26 10:15:46;;;;;;;8.43;2.88;;;;;;;;;;5072536;28;20124;-73
2022/04/26 10:18:32;;;;;;;5.72;2.55;;;;;;;;;;5071764;28;20108;-73
2022/04/26 10:20:58;;;;;;;7.32;3.05;;;;;;;;;;5072052;28;20020;-73
2022/04/26 10:23:24;;;;;;;7.13;2.97;;;;;;;;;;5071703;28;20082;-73
2022/04/26 10:26:09;;;;;;;14.40;3.22;;;;;;;;;;5071854;28;20020;-73
2022/04/26 10:28:49;;;;;;;6.68;2.40;;;;;;;;;;5070700;28;20444;-74
2022/04/26 10:31:17;;;;;;;6.22;2.65;;;;;;;;;;5071605;28;20028;-71
2022/04/26 10:33:44;;;;;;;6.65;3.05;;;;;;;;;;5071793;28;20027;-71
2022/04/26 10:36:25;;;;;;;7.72;2.75;;;;;;;;;;5071092;28;20070;-71
2022/04/26 10:39:14;;;;;;;7.43;2.40;;;;;;;;;;5070218;28;20024;-71
2022/04/26 10:41:42;;;;;;;5.93;2.38;;;;;;;;;;5071472;28;20028;-71
2022/04/26 10:44:20;;;;;;;9.82;2.53;;;;;;;;;;5071379;28;20024;-71
2022/04/26 10:46:50;;;;;;;5.38;2.55;;;;;;;;;;5068542;28;20033;-71
2022/04/26 10:49:36;;;;;;;8.18;3.03;;;;;;;;;;5069878;28;20364;-71
2022/04/26 10:52:13;;;;;;;4.15;2.08;;;;;;;;;;5067743;28;20051;-71
2022/04/26 10:54:48;;;;;;;7.72;2.25;;;;;;;;;;5071179;28;20496;-71
2022/04/26 10:57:22;;;;;;;7.25;2.00;;;;;;;;;;5071634;28;20017;-70
2022/04/26 10:59:49;;;;;;;5.22;1.92;;;;;;;;;;5067462;28;20445;-70
2022/04/26 11:02:19;;;;;;;4.03;1.80;;;;;;;;;;5071098;28;20032;-71
2022/04/26 11:04:46;;;;;;;5.22;2.05;;;;;;;;;;5071704;28;20025;-71
2022/04/26 11:07:16;;;;;;;7.13;2.08;;;;;;;;;;5071120;28;20039;-71
2022/04/26 11:09:49;;;;;;;4.45;2.15;;;;;;;;;;5068994;28;20047;-71
2022/04/26 11:12:18;;;;;;;2.92;1.73;;;;;;;;;;5071754;28;20100;-71
2022/04/26 11:14:45;;;;;;;5.18;2.30;;;;;;;;;;5071632;28;20446;-70
2022/04/26 11:17:11;;;;;;;9.15;2.25;;;;;;;;;;5065408;28;20071;-71
2022/04/26 11:19:38;;;;;;;5.72;1.77;;;;;;;;;;5071320;28;20106;-71
2022/04/26 11:22:08;;;;;;;7.13;2.50;;;;;;;;;;5071528;28;20043;-71
2022/04/26 11:30:05;;;;;;;5.90;2.13;;;;;;;;;;5072478;28;20605;-71
2022/04/26 11:32:32;;;;;;;4.45;1.70;;;;;;;;;;5075573;28;20029;-71
2022/04/26 11:34:58;;;;;;;5.15;2.20;;;;;;;;;;5075216;28;20187;-71
2022/04/26 11:37:24;;;;;;;4.47;2.00;;;;;;;;;;5074438;28;20025;-71
2022/04/26 11:39:50;;;;;;;4.13;2.10;;;;;;;;;;5073742;28;20029;-71
2022/04/26 11:42:17;;;;;;;9.15;2.47;;;;;;;;;;5073490;28;20050;-71
2022/04/26 11:44:59;;;;;;;6.93;2.38;;;;;;;;;;5075009;28;20359;-71
2022/04/26 11:47:25;;;;;;;;;;;;;;;;;;5073573;28;20024;-71
2022/04/26 11:49:51;;;;;;;6.47;2.13;;;;;;;;;;5074616;28;19987;-72
2022/04/26 11:52:24;;;;;;;6.47;1.73;;;;;;;;;;5071876;28;20427;-71
2022/04/26 11:54:50;;;;;;;6.07;2.47;;;;;;;;;;5073281;28;20024;-71
2022/04/26 11:57:21;;;;;;;4.18;2.08;;;;;;;;;;5074392;28;20542;-71
2022/04/26 11:59:48;;;;;;;8.63;2.47;;;;;;;;;;5074322;28;20099;-74
2022/04/26 12:02:14;;;;;;;7.47;1.90;;;;;;;;;;5074472;28;20479;-71
2022/04/26 12:04:41;;;;;;;4.00;1.90;;;;;;;;;;5074920;28;20049;-72
2022/04/26 12:07:07;;;;;;;7.35;2.15;;;;;;;;;;5074808;28;20031;-72
2022/04/26 12:09:33;;;;;;;7.07;2.00;;;;;;;;;;5074742;28;20150;-72
2022/04/26 12:12:01;;;;;;;4.80;2.08;;;;;;;;;;5066278;28;20032;-72
2022/04/26 12:14:27;;;;;;;4.30;2.00;;;;;;;;;;5069214;28;20493;-73
2022/04/26 12:16:56;;;;;;;5.70;2.00;;;;;;;;;;5074210;28;20040;-74
2022/04/26 12:19:35;;;;;;;4.50;2.20;;;;;;;;;;5074548;28;20079;-74
2022/04/26 12:22:01;;;;;;;5.25;2.42;;;;;;;;;;5074470;28;20017;-74
2022/04/26 12:24:29;;;;;;;4.07;2.15;;;;;;;;;;5074315;28;20021;-74
2022/04/26 12:26:55;;;;;;;7.57;2.22;;;;;;;;;;5073164;28;20116;-74
2022/04/26 12:29:22;;;;;;;8.07;2.15;;;;;;;;;;5074027;28;20024;-74
2022/04/26 12:31:49;;;;;;;8.65;2.65;;;;;;;;;;5072779;28;20466;-74
2022/04/26 12:34:16;;;;;;;7.07;2.70;;;;;;;;;;5072666;28;20505;-72
2022/04/26 12:37:00;;;;;;;6.13;2.28;;;;;;;;;;5074285;28;20020;-74
2022/04/26 12:39:28;;;;;;;7.80;2.47;;;;;;;;;;5073985;28;20431;-75
2022/04/26 12:41:56;;;;;;;5.88;2.17;;;;;;;;;;5072594;28;20501;-76
2022/04/26 12:44:22;;;;;;;5.43;2.05;;;;;;;;;;5074337;28;20048;-77
2022/04/26 12:50:27;;;;;;;4.93;2.10;;;;;;;;;;5074267;28;20086;-77
2022/04/26 12:52:39;;;;;;;5.90;2.50;;;;;;;;;;5074297;28;20497;-74
2022/04/26 12:55:05;;;;;;;5.07;2.20;;;;;;;;;;5073556;28;20474;-77
2022/04/26 12:57:32;;;;;;;3.90;2.15;;;;;;;;;;5073628;28;20021;-77
2022/04/26 12:59:58;;;;;;;8.63;2.88;;;;;;;;;;5073199;28;20020;-76
2022/04/26 13:02:24;;;;;;;4.05;2.75;;;;;;;;;;5072678;28;20043;-77
2022/04/26 13:04:50;;;;;;;6.68;2.15;;;;;;;;;;5073208;28;20467;-77
2022/04/26 13:07:16;;;;;;;3.47;2.20;;;;;;;;;;5072915;28;20032;-77
2022/04/26 13:09:42;;;;;;;7.10;2.40;;;;;;;;;;5073183;28;20094;-77
2022/04/26 13:12:09;;;;;;;3.85;1.90;;;;;;;;;;5071788;28;20021;-76
2022/04/26 13:14:35;;;;;;;5.75;2.30;;;;;;;;;;5073451;28;20017;-74
2022/04/26 13:17:01;;;;;;;5.20;2.10;;;;;;;;;;5072647;28;20469;-77
2022/04/26 13:19:27;;;;;;;10.13;2.58;;;;;;;;;;5074673;28;20522;-76
2022/04/26 13:21:53;;;;;;;4.25;1.95;;;;;;;;;;5073345;28;20439;-77
2022/04/26 13:24:27;;;;;;;5.50;2.38;;;;;;;;;;5074240;28;20490;-77
2022/04/26 13:26:53;;;;;;;5.93;2.30;;;;;;;;;;5072816;28;20429;-76
2022/04/26 13:29:19;;;;;;;5.28;2.30;;;;;;;;;;5073728;28;20035;-76
2022/04/26 13:31:45;;;;;;;3.92;2.10;;;;;;;;;;5073603;28;20021;-76
2022/04/26 13:34:11;;;;;;;6.05;2.30;;;;;;;;;;5073628;28;20032;-77
2022/04/26 13:36:37;;;;;;;6.47;2.30;;;;;;;;;;5073801;28;20044;-77
2022/04/26 13:39:04;;;;;;;4.05;2.20;;;;;;;;;;5073937;28;20356;-76
2022/04/26 13:41:31;;;;;;;7.13;2.63;;;;;;;;;;5073802;28;20029;-77
2022/04/26 13:43:57;;;;;;;4.68;2.10;;;;;;;;;;5073698;28;20041;-77
2022/04/26 13:46:23;;;;;;;7.78;2.63;;;;;;;;;;5073624;28;20028;-77
2022/04/26 13:48:50;;;;;;;5.93;2.10;;;;;;;;;;5073500;28;20020;-77
2022/04/26 13:51:16;;;;;;;5.38;2.08;;;;;;;;;;5073322;28;20043;-77
2022/04/26 13:53:42;;;;;;;9.32;2.67;;;;;;;;;;5072605;28;20036;-77
2022/04/26 13:56:09;;;;;;;3.92;2.10;;;;;;;;;;5073469;28;20032;-77
2022/04/26 13:58:35;;;;;;;5.13;2.15;;;;;;;;;;5073466;28;20111;-76
2022/04/26 14:01:01;;;;;;;6.93;1.88;;;;;;;;;;5073719;28;20048;-77
2022/04/26 14:03:27;;;;;;;6.43;2.10;;;;;;;;;;5073306;28;20033;-77
2022/04/26 14:05:55;;;;;;;5.28;1.88;;;;;;;;;;5071897;28;20036;-77
2022/04/26 14:08:21;;;;;;;4.65;2.08;;;;;;;;;;5073052;28;20487;-75
2022/04/26 14:10:47;;;;;;;7.07;2.15;;;;;;;;;;5073498;28;20494;-77
2022/04/26 14:13:13;;;;;;;6.85;1.88;;;;;;;;;;5073310;28;20035;-77
2022/04/26 14:23:53;;;;;;;6.63;2.53;;;;;;;;;;5073111;28;20066;-77
2022/04/26 14:26:20;;;;;;;6.20;2.10;;;;;;;;;;5073312;28;20395;-77
2022/04/26 14:28:46;;;;;;;3.85;1.73;;;;;;;;;;5072922;28;20036;-77
2022/04/26 14:31:12;;;;;;;4.45;1.73;;;;;;;;;;5058943;28;20530;-77
2022/04/26 14:33:38;;;;;;;3.67;2.08;;;;;;;;;;5052809;28;20061;-77
2022/04/26 14:36:04;;;;;;;3.53;2.10;;;;;;;;;;5052501;28;20490;-74
2022/04/26 14:38:30;;;;;;;4.72;2.10;;;;;;;;;;5052530;28;20020;-77
2022/04/26 14:40:56;;;;;;;5.93;1.80;;;;;;;;;;5052585;28;20119;-77
2022/04/26 14:43:22;;;;;;;5.65;2.00;;;;;;;;;;5052419;28;20118;-74
2022/04/26 14:45:51;;;;;;;3.97;2.08;;;;;;;;;;5050928;28;20021;-75
2022/04/26 14:48:17;;;;;;;5.78;2.03;;;;;;;;;;5050569;28;20052;-76
2022/04/26 14:50:44;;;;;;;8.45;2.22;;;;;;;;;;5051864;28;20052;-75
2022/04/26 14:53:10;;;;;;;4.97;1.75;;;;;;;;;;5050726;28;20171;-75
2022/04/26 14:55:36;;;;;;;3.75;1.70;;;;;;;;;;5052103;28;20024;-75
2022/04/26 14:58:03;;;;;;;3.40;1.80;;;;;;;;;;5051870;28;20024;-73
2022/04/26 15:00:29;;;;;;;3.88;1.60;;;;;;;;;;5053702;28;20099;-74
2022/04/26 15:02:55;;;;;;;3.45;1.88;;;;;;;;;;5071360;28;20025;-74
2022/04/26 15:05:22;;;;;;;4.93;1.73;;;;;;;;;;5071537;28;20020;-73
2022/04/26 15:10:33;;;;;;;5.55;1.70;;;;;;;;;;5068888;28;20038;-74
2022/04/26 15:18:28;;;;;;;3.78;2.10;;;;;;;;;;5070650;28;20099;-74
2022/04/26 15:20:54;;;;;;;2.90;1.58;;;;;;;;;;5071187;28;20017;-75
2022/04/26 15:23:21;;;;;;;4.22;1.73;;;;;;;;;;5071122;28;20107;-75
2022/04/26 15:25:55;;;;;;;7.15;1.48;;;;;;;;;;5070987;28;20020;-75
2022/04/26 15:28:22;;;;;;;4.32;1.33;;;;;;;;;;5071041;28;20426;-75
2022/04/26 15:30:49;;;;;;;5.03;1.50;;;;;;;;;;5070600;28;20021;-75
2022/04/26 15:33:15;;;;;;;3.78;1.60;;;;;;;;;;5069286;28;20116;-75
2022/04/26 15:35:42;;;;;;;3.55;1.38;;;;;;;;;;5070607;28;20036;-74
2022/04/26 15:38:10;;;;;;;4.50;1.58;;;;;;;;;;5070918;28;20017;-75
2022/04/26 15:40:36;;;;;;;3.72;1.67;;;;;;;;;;5069678;28;20442;-75
2022/04/26 15:43:05;;;;;;;3.65;1.50;;;;;;;;;;5071125;28;20016;-75
2022/04/26 15:45:31;;;;;;;3.72;1.42;;;;;;;;;;5070667;28;20020;-74
2022/04/26 15:47:57;;;;;;;6.93;1.88;;;;;;;;;;5070861;28;20032;-74
2022/04/26 15:50:23;;;;;;;4.50;1.67;;;;;;;;;;5070758;28;20134;-74
2022/04/26 15:52:50;;;;;;;4.30;1.25;;;;;;;;;;5070962;28;20386;-73
2022/04/26 15:55:16;;;;;;;3.85;1.80;;;;;;;;;;5070835;28;20035;-73
2022/04/26 15:57:47;;;;;;;2.83;1.30;;;;;;;;;;5071021;28;20122;-72
2022/04/26 16:00:14;;;;;;;4.00;1.30;;;;;;;;;;5070584;28;20068;-73
2022/04/26 16:02:43;;;;;;;4.57;1.48;;;;;;;;;;5067030;28;20028;-73
2022/04/26 16:05:10;;;;;;;7.82;1.88;;;;;;;;;;5056271;28;20472;-73
2022/04/26 16:07:36;;;;;;;4.68;1.80;;;;;;;;;;5066800;28;20039;-73
2022/04/26 16:21:03;;;;;;;9.05;1.40;;;;;;;;;;5067148;28;20031;-72
2022/04/26 16:23:29;;;;;;;6.43;2.15;;;;;;;;;;5069042;28;20024;-72
2022/04/26 16:26:01;;;;;;;3.90;1.60;;;;;;;;;;5067170;28;20036;-74
2022/04/26 16:28:28;;;;;;;;;;;;;;;;;;5067173;28;20028;-71
2022/04/26 16:30:54;;;;;;;4.78;1.38;;;;;;;;;;5063008;28;19905;-74
2022/04/26 16:33:20;;;;;;;6.22;1.70;;;;;;;;;;5067683;28;20532;-72
2022/04/26 16:35:46;;;;;;;4.82;1.67;;;;;;;;;;5062483;28;20542;-74
2022/04/26 16:38:13;;;;;;;4.93;1.45;;;;;;;;;;5064687;28;20139;-72
2022/04/26 16:40:39;;;;;;;2.67;1.52;;;;;;;;;;5068148;28;20096;-77
2022/04/26 16:43:05;;;;;;;4.70;1.63;;;;;;;;;;5061918;28;20425;-72
2022/04/26 16:45:33;;;;;;;4.13;1.55;;;;;;;;;;5066580;28;20087;-73
2022/04/26 16:47:59;;;;;;;5.60;1.40;;;;;;;;;;5065325;28;20085;-72
2022/04/26 16:50:25;;;;;;;3.83;1.70;;;;;;;;;;5066874;28;20029;-73
2022/04/26 16:52:52;;;;;;;6.43;1.60;;;;;;;;;;5066701;28;20040;-72
2022/04/26 16:55:18;;;;;;;4.63;2.00;;;;;;;;;;5064570;28;20029;-74
2022/04/26 16:57:45;;;;;;;5.22;1.80;;;;;;;;;;5065540;28;20481;-71
2022/04/26 17:00:14;;;;;;;4.70;1.73;;;;;;;;;;5071462;28;20364;-74
2022/04/26 17:02:40;;;;;;;8.93;1.88;;;;;;;;;;5071141;28;20073;-74
2022/04/26 17:05:06;;;;;;;4.38;1.80;;;;;;;;;;5072552;28;20025;-72
2022/04/26 17:07:33;;;;;;;4.20;1.75;;;;;;;;;;5072876;28;20038;-72
2022/04/26 17:09:59;;;;;;;5.35;1.70;;;;;;;;;;5072894;28;20862;-73
2022/04/26 17:12:28;;;;;;;3.17;1.52;;;;;;;;;;5072937;28;20162;-73
2022/04/26 17:14:54;;;;;;;3.50;1.60;;;;;;;;;;5072924;28;20156;-73
2022/04/26 17:17:21;;;;;;;5.80;1.90;;;;;;;;;;5071790;28;20103;-73
2022/04/26 17:19:48;;;;;;;7.47;2.38;;;;;;;;;;5070593;28;20017;-73
2022/04/26 17:22:14;;;;;;;3.95;2.05;;;;;;;;;;5072679;28;20021;-73
2022/04/26 17:27:25;;;;;;;4.90;1.75;;;;;;;;;;5071658;28;20083;-73
2022/04/26 17:29:51;;;;;;;7.25;2.13;;;;;;;;;;5071194;28;20143;-73
2022/04/26 17:32:17;;;;;;;4.47;1.80;;;;;;;;;;5072800;28;20021;-73
2022/04/26 17:34:44;;;;;;;48.13;2.65;;;;;;;;;;5072932;28;20381;-72
2022/04/26 17:37:13;;;;;;;7.38;2.40;;;;;;;;;;5072908;28;20036;-73
2022/04/26 17:39:40;;;;;;;4.63;1.77;;;;;;;;;;5071599;28;20036;-73
2022/04/26 17:42:07;;;;;;;5.35;1.80;;;;;;;;;;5073163;28;20028;-73
2022/04/26 17:44:34;;;;;;;3.75;1.98;;;;;;;;;;5073017;28;20013;-73
2022/04/26 17:47:01;;;;;;;4.22;2.00;;;;;;;;;;5072529;28;20036;-72
2022/04/26 17:49:27;;;;;;;5.25;2.03;;;;;;;;;;5072551;28;20040;-72
2022/04/26 17:51:53;;;;;;;4.53;1.90;;;;;;;;;;5072900;28;20024;-72
2022/04/26 17:57:05;;;;;;;4.43;2.03;;;;;;;;;;5072834;28;20414;-72
2022/04/26 17:59:31;;;;;;;5.22;2.33;;;;;;;;;;5072695;28;20085;-74
2022/04/26 18:01:57;;;;;;;4.68;1.63;;;;;;;;;;5072546;28;20025;-73
2022/04/26 18:04:23;;;;;;;4.00;1.80;;;;;;;;;;5072657;28;20032;-74
2022/04/26 18:06:49;;;;;;;7.82;2.10;;;;;;;;;;5072487;28;20375;-72
2022/04/26 18:09:15;;;;;;;7.38;2.20;;;;;;;;;;5072359;28;20052;-73
2022/04/26 18:11:41;;;;;;;4.40;1.80;;;;;;;;;;5065101;28;20021;-72
2022/04/26 18:14:08;;;;;;;5.82;1.90;;;;;;;;;;5052211;28;20033;-72
2022/04/26 18:16:34;;;;;;;9.25;2.08;;;;;;;;;;5063772;28;20020;-73
2022/04/26 18:19:04;;;;;;;5.93;2.45;;;;;;;;;;5071518;28;20031;-72
2022/04/26 18:21:32;;;;;;;6.40;2.47;;;;;;;;;;5070712;28;20111;-72
2022/04/26 18:23:59;;;;;;;6.35;2.50;;;;;;;;;;5071569;28;20028;-72
2022/04/26 18:26:26;;;;;;;8.57;2.90;;;;;;;;;;5069985;28;20016;-72
2022/04/26 18:28:53;;;;;;;6.38;2.58;;;;;;;;;;5071375;28;20044;-75
2022/04/26 18:31:20;;;;;;;6.90;2.60;;;;;;;;;;5071302;28;20063;-74
2022/04/26 18:33:46;;;;;;;4.78;2.83;;;;;;;;;;5071192;28;20522;-74
2022/04/26 18:36:13;;;;;;;8.40;3.00;;;;;;;;;;5071080;28;20099;-73
2022/04/26 18:38:41;;;;;;;8.73;2.85;;;;;;;;;;5070689;28;20036;-73
2022/04/26 18:41:10;;;;;;;5.15;2.83;;;;;;;;;;5068973;28;20719;-74
2022/04/26 18:43:37;;;;;;;5.57;2.55;;;;;;;;;;5071584;28;20032;-74
2022/04/26 18:46:03;;;;;;;6.57;2.40;;;;;;;;;;5071370;28;20035;-74
2022/04/26 18:48:30;;;;;;;10.60;3.05;;;;;;;;;;5071540;28;20100;-73
2022/04/26 18:50:56;;;;;;;8.27;2.83;;;;;;;;;;5071501;28;20020;-74
2022/04/26 18:53:22;;;;;;;6.75;2.92;;;;;;;;;;5071355;28;20023;-74
2022/04/26 18:55:49;;;;;;;7.53;2.70;;;;;;;;;;5071408;28;20016;-74
2022/04/26 18:58:17;;;;;;;6.65;2.45;;;;;;;;;;5068288;28;20031;-74
2022/04/26 19:00:44;;;;;;;6.22;2.58;;;;;;;;;;5061629;28;20199;-74
2022/04/26 19:03:10;;;;;;;8.95;3.00;;;;;;;;;;5070998;28;20604;-74
2022/04/26 19:05:36;;;;;;;10.98;3.15;;;;;;;;;;5070135;28;20017;-74
2022/04/26 19:08:03;;;;;;;7.20;3.20;;;;;;;;;;5071086;28;20414;-73
2022/04/26 19:13:13;;;;;;;5.65;3.00;;;;;;;;;;5069864;28;20086;-73